Marlton, New Jersey
Current Conditions -  °F | °C
As of 8:54 AM on Wednesday 28 Jan 2015 (Local Time) from KVAY Reporting Station
Clear Clear  
Wind Chill:   Ceiling: Unl
Heat Index: 20°   Visibility: 10mi
Dew Point:   Wind: 15mph
Humidity: 44%   Direction: 320°NW
Pressure: 30.11"   Gusts: 22mph
Location:  39.89°N, 74.92°W
Report Text: KVAY 281354Z AUTO 32013G19KT 10SM CLR M07/M17 A3011 RMK AO2 SLP197 T10671172
Loading
Personal Weather Stations






























Interactive Weather Map New forecast layout! Learn more

10-Day Weather Forecast

Advertisements
Track Severe Weather on mobile